sensor_id;sensor_type;location;lat;lon;timestamp;P1;durP1;ratioP1;P2;durP2;ratioP2
57395;SDS011;43222;52.912;6.940;2023-03-01T00:01:23;39.90;;;21.13;;
57395;SDS011;43222;52.912;6.940;2023-03-01T00:03:50;37.58;;;24.38;;
57395;SDS011;43222;52.912;6.940;2023-03-01T00:06:16;67.68;;;23.83;;
57395;SDS011;43222;52.912;6.940;2023-03-01T00:08:42;221.48;;;24.05;;
57395;SDS011;43222;52.912;6.940;2023-03-01T00:13:38;40.42;;;21.75;;
57395;SDS011;43222;52.912;6.940;2023-03-01T00:16:04;79.22;;;22.92;;
57395;SDS011;43222;52.912;6.940;2023-03-01T00:18:31;38.70;;;22.77;;
57395;SDS011;43222;52.912;6.940;2023-03-01T00:20:57;35.35;;;23.33;;
57395;SDS011;43222;52.912;6.940;2023-03-01T00:23:23;34.83;;;24.33;;
57395;SDS011;43222;52.912;6.940;2023-03-01T00:25:49;31.58;;;23.08;;
57395;SDS011;43222;52.912;6.940;2023-03-01T00:28:16;31.27;;;23.35;;
57395;SDS011;43222;52.912;6.940;2023-03-01T00:30:42;125.78;;;26.17;;
57395;SDS011;43222;52.912;6.940;2023-03-01T00:33:08;39.20;;;24.10;;
57395;SDS011;43222;52.912;6.940;2023-03-01T00:35:34;37.25;;;24.13;;
57395;SDS011;43222;52.912;6.940;2023-03-01T00:38:01;31.05;;;22.58;;
57395;SDS011;43222;52.912;6.940;2023-03-01T00:40:28;26.38;;;19.58;;
57395;SDS011;43222;52.912;6.940;2023-03-01T00:42:55;27.75;;;20.60;;
57395;SDS011;43222;52.912;6.940;2023-03-01T00:45:21;34.42;;;22.88;;
57395;SDS011;43222;52.912;6.940;2023-03-01T00:47:50;43.33;;;21.90;;
57395;SDS011;43222;52.912;6.940;2023-03-01T00:50:16;27.63;;;20.30;;
57395;SDS011;43222;52.912;6.940;2023-03-01T00:52:42;24.58;;;19.17;;
57395;SDS011;43222;52.912;6.940;2023-03-01T00:55:09;27.27;;;19.88;;
57395;SDS011;43222;52.912;6.940;2023-03-01T00:57:35;31.45;;;22.85;;
57395;SDS011;43222;52.912;6.940;2023-03-01T01:00:01;28.98;;;21.20;;
57395;SDS011;43222;52.912;6.940;2023-03-01T01:02:29;27.83;;;20.67;;
57395;SDS011;43222;52.912;6.940;2023-03-01T01:04:55;30.83;;;21.70;;
57395;SDS011;43222;52.912;6.940;2023-03-01T01:07:21;34.67;;;23.38;;
57395;SDS011;43222;52.912;6.940;2023-03-01T01:09:47;32.45;;;22.23;;
57395;SDS011;43222;52.912;6.940;2023-03-01T01:12:13;34.20;;;23.05;;
57395;SDS011;43222;52.912;6.940;2023-03-01T01:14:39;31.95;;;22.80;;
57395;SDS011;43222;52.912;6.940;2023-03-01T01:17:05;27.52;;;19.70;;
57395;SDS011;43222;52.912;6.940;2023-03-01T01:19:31;28.60;;;21.17;;
57395;SDS011;43222;52.912;6.940;2023-03-01T01:21:57;28.50;;;21.40;;
57395;SDS011;43222;52.912;6.940;2023-03-01T01:24:23;30.17;;;21.50;;
57395;SDS011;43222;52.912;6.940;2023-03-01T01:26:49;41.90;;;36.42;;
57395;SDS011;43222;52.912;6.940;2023-03-01T01:29:15;46.88;;;41.78;;
57395;SDS011;43222;52.912;6.940;2023-03-01T01:31:42;34.80;;;25.13;;
57395;SDS011;43222;52.912;6.940;2023-03-01T01:34:11;29.60;;;22.08;;
57395;SDS011;43222;52.912;6.940;2023-03-01T01:36:38;43.42;;;25.15;;
57395;SDS011;43222;52.912;6.940;2023-03-01T01:39:04;34.10;;;25.83;;
57395;SDS011;43222;52.912;6.940;2023-03-01T01:41:30;28.75;;;21.38;;
57395;SDS011;43222;52.912;6.940;2023-03-01T01:46:36;35.45;;;25.88;;
57395;SDS011;43222;52.912;6.940;2023-03-01T01:49:07;33.33;;;24.77;;
57395;SDS011;43222;52.912;6.940;2023-03-01T01:51:37;29.25;;;20.85;;
57395;SDS011;43222;52.912;6.940;2023-03-01T01:54:14;29.10;;;21.40;;
57395;SDS011;43222;52.912;6.940;2023-03-01T01:56:43;31.60;;;23.13;;
57395;SDS011;43222;52.912;6.940;2023-03-01T01:59:10;42.60;;;23.92;;
57395;SDS011;43222;52.912;6.940;2023-03-01T02:01:37;35.90;;;23.08;;
57395;SDS011;43222;52.912;6.940;2023-03-01T02:04:03;32.25;;;22.08;;
57395;SDS011;43222;52.912;6.940;2023-03-01T02:06:32;35.30;;;23.02;;
57395;SDS011;43222;52.912;6.940;2023-03-01T02:09:04;32.92;;;22.45;;
57395;SDS011;43222;52.912;6.940;2023-03-01T02:11:32;33.15;;;22.85;;
57395;SDS011;43222;52.912;6.940;2023-03-01T02:13:58;37.30;;;25.40;;
57395;SDS011;43222;52.912;6.940;2023-03-01T02:16:25;33.78;;;24.20;;
57395;SDS011;43222;52.912;6.940;2023-03-01T02:18:51;31.95;;;23.98;;
57395;SDS011;43222;52.912;6.940;2023-03-01T02:24:09;30.35;;;22.10;;
57395;SDS011;43222;52.912;6.940;2023-03-01T02:29:06;27.85;;;20.58;;
57395;SDS011;43222;52.912;6.940;2023-03-01T02:31:32;31.40;;;22.52;;
57395;SDS011;43222;52.912;6.940;2023-03-01T02:34:15;29.38;;;21.95;;
57395;SDS011;43222;52.912;6.940;2023-03-01T02:36:46;31.23;;;21.50;;
57395;SDS011;43222;52.912;6.940;2023-03-01T02:39:26;29.20;;;21.85;;
57395;SDS011;43222;52.912;6.940;2023-03-01T02:41:54;28.05;;;20.02;;
57395;SDS011;43222;52.912;6.940;2023-03-01T02:44:21;30.73;;;21.00;;
57395;SDS011;43222;52.912;6.940;2023-03-01T02:46:49;29.10;;;21.88;;
57395;SDS011;43222;52.912;6.940;2023-03-01T02:49:17;31.52;;;21.00;;
57395;SDS011;43222;52.912;6.940;2023-03-01T02:56:42;27.48;;;20.83;;
57395;SDS011;43222;52.912;6.940;2023-03-01T02:59:09;25.25;;;20.05;;
57395;SDS011;43222;52.912;6.940;2023-03-01T03:01:35;26.15;;;18.80;;
57395;SDS011;43222;52.912;6.940;2023-03-01T03:04:06;26.70;;;20.02;;
57395;SDS011;43222;52.912;6.940;2023-03-01T03:06:32;27.45;;;20.42;;
57395;SDS011;43222;52.912;6.940;2023-03-01T03:08:58;28.45;;;19.60;;
57395;SDS011;43222;52.912;6.940;2023-03-01T03:11:25;27.75;;;19.15;;
57395;SDS011;43222;52.912;6.940;2023-03-01T03:13:51;26.25;;;18.40;;
57395;SDS011;43222;52.912;6.940;2023-03-01T03:16:17;24.95;;;19.25;;
57395;SDS011;43222;52.912;6.940;2023-03-01T03:18:44;26.90;;;19.67;;
57395;SDS011;43222;52.912;6.940;2023-03-01T03:21:11;27.23;;;19.65;;
57395;SDS011;43222;52.912;6.940;2023-03-01T03:23:37;26.90;;;20.05;;
57395;SDS011;43222;52.912;6.940;2023-03-01T03:26:04;26.48;;;20.58;;
57395;SDS011;43222;52.912;6.940;2023-03-01T03:28:34;28.25;;;19.75;;
57395;SDS011;43222;52.912;6.940;2023-03-01T03:31:05;25.73;;;19.23;;
57395;SDS011;43222;52.912;6.940;2023-03-01T03:33:31;26.95;;;21.05;;
57395;SDS011;43222;52.912;6.940;2023-03-01T03:35:58;28.90;;;20.38;;
57395;SDS011;43222;52.912;6.940;2023-03-01T03:38:24;30.02;;;20.40;;
57395;SDS011;43222;52.912;6.940;2023-03-01T03:40:51;27.38;;;19.05;;
57395;SDS011;43222;52.912;6.940;2023-03-01T03:43:18;31.92;;;20.40;;
57395;SDS011;43222;52.912;6.940;2023-03-01T03:45:45;25.30;;;18.98;;
57395;SDS011;43222;52.912;6.940;2023-03-01T03:48:12;25.05;;;18.45;;
57395;SDS011;43222;52.912;6.940;2023-03-01T03:50:38;24.77;;;18.83;;
57395;SDS011;43222;52.912;6.940;2023-03-01T03:53:07;25.90;;;18.27;;
57395;SDS011;43222;52.912;6.940;2023-03-01T03:55:33;25.98;;;18.25;;
57395;SDS011;43222;52.912;6.940;2023-03-01T03:58:00;24.40;;;18.73;;
57395;SDS011;43222;52.912;6.940;2023-03-01T04:00:27;27.83;;;18.85;;
57395;SDS011;43222;52.912;6.940;2023-03-01T04:02:53;24.60;;;18.33;;
57395;SDS011;43222;52.912;6.940;2023-03-01T04:05:21;26.23;;;18.95;;
57395;SDS011;43222;52.912;6.940;2023-03-01T04:07:49;27.10;;;17.77;;
57395;SDS011;43222;52.912;6.940;2023-03-01T04:10:26;26.38;;;18.13;;
57395;SDS011;43222;52.912;6.940;2023-03-01T04:12:52;25.85;;;20.02;;
57395;SDS011;43222;52.912;6.940;2023-03-01T04:15:18;27.83;;;19.85;;
57395;SDS011;43222;52.912;6.940;2023-03-01T04:17:45;27.20;;;18.52;;
57395;SDS011;43222;52.912;6.940;2023-03-01T04:20:14;19.17;;;16.05;;
57395;SDS011;43222;52.912;6.940;2023-03-01T04:22:49;19.40;;;15.82;;
57395;SDS011;43222;52.912;6.940;2023-03-01T04:25:16;21.92;;;17.02;;
57395;SDS011;43222;52.912;6.940;2023-03-01T04:27:42;21.52;;;16.08;;
57395;SDS011;43222;52.912;6.940;2023-03-01T04:30:08;21.30;;;16.77;;
57395;SDS011;43222;52.912;6.940;2023-03-01T04:32:35;20.80;;;16.25;;
57395;SDS011;43222;52.912;6.940;2023-03-01T04:35:01;22.13;;;16.05;;
57395;SDS011;43222;52.912;6.940;2023-03-01T04:37:27;21.90;;;16.98;;
57395;SDS011;43222;52.912;6.940;2023-03-01T04:39:54;22.23;;;16.65;;
57395;SDS011;43222;52.912;6.940;2023-03-01T04:42:20;23.65;;;17.25;;
57395;SDS011;43222;52.912;6.940;2023-03-01T04:44:46;24.73;;;17.92;;
57395;SDS011;43222;52.912;6.940;2023-03-01T04:47:12;26.75;;;19.75;;
57395;SDS011;43222;52.912;6.940;2023-03-01T04:49:38;28.90;;;19.88;;
57395;SDS011;43222;52.912;6.940;2023-03-01T04:52:05;30.80;;;21.80;;
57395;SDS011;43222;52.912;6.940;2023-03-01T04:54:32;33.60;;;23.45;;
57395;SDS011;43222;52.912;6.940;2023-03-01T04:56:58;32.10;;;22.58;;
57395;SDS011;43222;52.912;6.940;2023-03-01T04:59:24;28.98;;;21.48;;
57395;SDS011;43222;52.912;6.940;2023-03-01T05:01:51;31.67;;;22.77;;
57395;SDS011;43222;52.912;6.940;2023-03-01T05:04:17;34.92;;;23.88;;
57395;SDS011;43222;52.912;6.940;2023-03-01T05:06:43;32.22;;;22.23;;
57395;SDS011;43222;52.912;6.940;2023-03-01T05:09:09;29.92;;;22.00;;
57395;SDS011;43222;52.912;6.940;2023-03-01T05:11:36;30.58;;;21.80;;
57395;SDS011;43222;52.912;6.940;2023-03-01T05:14:03;29.50;;;21.80;;
57395;SDS011;43222;52.912;6.940;2023-03-01T05:16:29;31.23;;;20.95;;
57395;SDS011;43222;52.912;6.940;2023-03-01T05:18:57;30.65;;;21.25;;
57395;SDS011;43222;52.912;6.940;2023-03-01T05:21:23;26.48;;;20.05;;
57395;SDS011;43222;52.912;6.940;2023-03-01T05:23:49;31.48;;;21.70;;
57395;SDS011;43222;52.912;6.940;2023-03-01T05:26:16;26.08;;;20.60;;
57395;SDS011;43222;52.912;6.940;2023-03-01T05:28:42;26.77;;;19.67;;
57395;SDS011;43222;52.912;6.940;2023-03-01T05:31:08;30.38;;;21.10;;
57395;SDS011;43222;52.912;6.940;2023-03-01T05:33:40;31.17;;;20.75;;
57395;SDS011;43222;52.912;6.940;2023-03-01T05:36:07;30.38;;;21.00;;
57395;SDS011;43222;52.912;6.940;2023-03-01T05:38:34;31.85;;;20.83;;
57395;SDS011;43222;52.912;6.940;2023-03-01T05:41:01;31.75;;;22.13;;
57395;SDS011;43222;52.912;6.940;2023-03-01T05:43:29;29.60;;;21.20;;
57395;SDS011;43222;52.912;6.940;2023-03-01T05:48:24;29.27;;;20.45;;
57395;SDS011;43222;52.912;6.940;2023-03-01T05:50:51;27.05;;;19.10;;
57395;SDS011;43222;52.912;6.940;2023-03-01T05:53:18;27.23;;;19.67;;
57395;SDS011;43222;52.912;6.940;2023-03-01T05:55:48;28.33;;;21.42;;
57395;SDS011;43222;52.912;6.940;2023-03-01T05:58:16;25.05;;;18.85;;
57395;SDS011;43222;52.912;6.940;2023-03-01T06:00:43;25.00;;;18.15;;
57395;SDS011;43222;52.912;6.940;2023-03-01T06:03:10;26.45;;;18.70;;
57395;SDS011;43222;52.912;6.940;2023-03-01T06:05:36;27.08;;;19.70;;
57395;SDS011;43222;52.912;6.940;2023-03-01T06:08:02;26.15;;;19.50;;
57395;SDS011;43222;52.912;6.940;2023-03-01T06:10:29;26.58;;;19.40;;
57395;SDS011;43222;52.912;6.940;2023-03-01T06:12:55;27.23;;;19.77;;
57395;SDS011;43222;52.912;6.940;2023-03-01T06:15:21;30.27;;;19.70;;
57395;SDS011;43222;52.912;6.940;2023-03-01T06:17:47;28.55;;;19.60;;
57395;SDS011;43222;52.912;6.940;2023-03-01T06:20:15;26.05;;;18.90;;
57395;SDS011;43222;52.912;6.940;2023-03-01T06:22:42;27.77;;;19.92;;
57395;SDS011;43222;52.912;6.940;2023-03-01T06:25:08;23.90;;;18.83;;
57395;SDS011;43222;52.912;6.940;2023-03-01T06:27:35;25.85;;;18.52;;
57395;SDS011;43222;52.912;6.940;2023-03-01T06:30:02;26.88;;;19.38;;
57395;SDS011;43222;52.912;6.940;2023-03-01T06:32:28;26.02;;;20.00;;
57395;SDS011;43222;52.912;6.940;2023-03-01T06:34:55;24.63;;;19.05;;
57395;SDS011;43222;52.912;6.940;2023-03-01T06:37:21;28.83;;;19.95;;
57395;SDS011;43222;52.912;6.940;2023-03-01T06:39:47;28.48;;;20.40;;
57395;SDS011;43222;52.912;6.940;2023-03-01T06:42:14;33.90;;;21.20;;
57395;SDS011;43222;52.912;6.940;2023-03-01T06:44:40;38.63;;;21.88;;
57395;SDS011;43222;52.912;6.940;2023-03-01T06:47:06;33.22;;;20.83;;
57395;SDS011;43222;52.912;6.940;2023-03-01T06:49:32;26.88;;;19.90;;
57395;SDS011;43222;52.912;6.940;2023-03-01T06:51:58;26.33;;;19.67;;
57395;SDS011;43222;52.912;6.940;2023-03-01T06:54:24;28.48;;;20.20;;
57395;SDS011;43222;52.912;6.940;2023-03-01T06:56:50;26.58;;;19.50;;
57395;SDS011;43222;52.912;6.940;2023-03-01T06:59:17;27.42;;;20.13;;
57395;SDS011;43222;52.912;6.940;2023-03-01T07:01:43;28.17;;;19.77;;
57395;SDS011;43222;52.912;6.940;2023-03-01T07:04:10;27.30;;;20.25;;
57395;SDS011;43222;52.912;6.940;2023-03-01T07:06:36;28.60;;;20.60;;
57395;SDS011;43222;52.912;6.940;2023-03-01T07:09:02;28.02;;;21.05;;
57395;SDS011;43222;52.912;6.940;2023-03-01T07:11:28;30.00;;;21.35;;
57395;SDS011;43222;52.912;6.940;2023-03-01T07:13:54;29.25;;;21.30;;
57395;SDS011;43222;52.912;6.940;2023-03-01T07:16:21;27.45;;;20.75;;
57395;SDS011;43222;52.912;6.940;2023-03-01T07:18:47;28.20;;;21.35;;
57395;SDS011;43222;52.912;6.940;2023-03-01T07:21:14;29.58;;;21.48;;
57395;SDS011;43222;52.912;6.940;2023-03-01T07:23:41;29.00;;;21.27;;
57395;SDS011;43222;52.912;6.940;2023-03-01T07:26:07;23.48;;;19.27;;
57395;SDS011;43222;52.912;6.940;2023-03-01T07:28:33;24.48;;;19.98;;
57395;SDS011;43222;52.912;6.940;2023-03-01T07:31:04;28.13;;;21.17;;
57395;SDS011;43222;52.912;6.940;2023-03-01T07:33:30;36.53;;;25.10;;
57395;SDS011;43222;52.912;6.940;2023-03-01T07:35:57;39.25;;;26.45;;
57395;SDS011;43222;52.912;6.940;2023-03-01T07:38:24;41.40;;;28.50;;
57395;SDS011;43222;52.912;6.940;2023-03-01T07:40:50;48.67;;;29.90;;
57395;SDS011;43222;52.912;6.940;2023-03-01T07:43:16;43.97;;;27.70;;
57395;SDS011;43222;52.912;6.940;2023-03-01T07:45:42;41.17;;;27.45;;
57395;SDS011;43222;52.912;6.940;2023-03-01T07:48:08;41.90;;;27.73;;
57395;SDS011;43222;52.912;6.940;2023-03-01T07:50:34;37.45;;;25.83;;
57395;SDS011;43222;52.912;6.940;2023-03-01T07:53:00;36.97;;;27.05;;
57395;SDS011;43222;52.912;6.940;2023-03-01T07:55:27;39.17;;;28.40;;
57395;SDS011;43222;52.912;6.940;2023-03-01T07:57:53;36.88;;;25.95;;
57395;SDS011;43222;52.912;6.940;2023-03-01T08:00:20;32.92;;;26.27;;
57395;SDS011;43222;52.912;6.940;2023-03-01T08:02:46;31.17;;;25.63;;
57395;SDS011;43222;52.912;6.940;2023-03-01T08:05:12;33.53;;;24.92;;
57395;SDS011;43222;52.912;6.940;2023-03-01T08:07:38;32.65;;;25.52;;
57395;SDS011;43222;52.912;6.940;2023-03-01T08:10:04;33.45;;;26.77;;
57395;SDS011;43222;52.912;6.940;2023-03-01T08:12:30;32.55;;;26.35;;
57395;SDS011;43222;52.912;6.940;2023-03-01T08:14:56;41.28;;;28.40;;
57395;SDS011;43222;52.912;6.940;2023-03-01T08:17:22;34.30;;;28.33;;
57395;SDS011;43222;52.912;6.940;2023-03-01T08:19:48;36.75;;;28.85;;
57395;SDS011;43222;52.912;6.940;2023-03-01T08:22:14;37.15;;;29.98;;
57395;SDS011;43222;52.912;6.940;2023-03-01T08:24:41;41.50;;;30.63;;
57395;SDS011;43222;52.912;6.940;2023-03-01T08:27:07;39.20;;;30.23;;
57395;SDS011;43222;52.912;6.940;2023-03-01T08:29:33;37.08;;;30.73;;
57395;SDS011;43222;52.912;6.940;2023-03-01T08:32:00;39.47;;;31.10;;
57395;SDS011;43222;52.912;6.940;2023-03-01T08:34:26;40.63;;;29.98;;
57395;SDS011;43222;52.912;6.940;2023-03-01T08:36:52;38.20;;;29.13;;
57395;SDS011;43222;52.912;6.940;2023-03-01T08:39:19;44.20;;;31.83;;
57395;SDS011;43222;52.912;6.940;2023-03-01T08:41:46;41.50;;;32.22;;
57395;SDS011;43222;52.912;6.940;2023-03-01T08:44:12;43.03;;;31.48;;
57395;SDS011;43222;52.912;6.940;2023-03-01T08:46:42;39.90;;;29.50;;
57395;SDS011;43222;52.912;6.940;2023-03-01T08:49:13;38.65;;;30.92;;
57395;SDS011;43222;52.912;6.940;2023-03-01T08:51:40;39.70;;;30.13;;
57395;SDS011;43222;52.912;6.940;2023-03-01T08:54:06;40.40;;;29.67;;
57395;SDS011;43222;52.912;6.940;2023-03-01T08:56:33;39.28;;;28.27;;
57395;SDS011;43222;52.912;6.940;2023-03-01T08:58:59;36.90;;;26.77;;
57395;SDS011;43222;52.912;6.940;2023-03-01T09:01:25;38.33;;;29.33;;
57395;SDS011;43222;52.912;6.940;2023-03-01T09:03:51;40.30;;;29.23;;
57395;SDS011;43222;52.912;6.940;2023-03-01T09:06:17;38.58;;;30.23;;
57395;SDS011;43222;52.912;6.940;2023-03-01T09:08:44;37.97;;;29.73;;
57395;SDS011;43222;52.912;6.940;2023-03-01T09:11:12;38.03;;;27.58;;
57395;SDS011;43222;52.912;6.940;2023-03-01T09:13:38;36.33;;;26.80;;
57395;SDS011;43222;52.912;6.940;2023-03-01T09:16:05;46.95;;;31.98;;
57395;SDS011;43222;52.912;6.940;2023-03-01T09:18:32;45.33;;;28.67;;
57395;SDS011;43222;52.912;6.940;2023-03-01T09:21:05;33.40;;;24.30;;
57395;SDS011;43222;52.912;6.940;2023-03-01T09:23:36;34.13;;;25.38;;
57395;SDS011;43222;52.912;6.940;2023-03-01T09:26:04;32.53;;;23.95;;
57395;SDS011;43222;52.912;6.940;2023-03-01T09:28:30;28.60;;;21.90;;
57395;SDS011;43222;52.912;6.940;2023-03-01T09:30:59;29.48;;;22.17;;
57395;SDS011;43222;52.912;6.940;2023-03-01T09:33:26;32.45;;;22.35;;
57395;SDS011;43222;52.912;6.940;2023-03-01T09:36:03;31.90;;;24.23;;
57395;SDS011;43222;52.912;6.940;2023-03-01T09:38:29;31.65;;;22.45;;
57395;SDS011;43222;52.912;6.940;2023-03-01T09:40:55;35.20;;;25.02;;
57395;SDS011;43222;52.912;6.940;2023-03-01T09:43:32;33.65;;;24.17;;
57395;SDS011;43222;52.912;6.940;2023-03-01T09:46:05;32.95;;;22.92;;
57395;SDS011;43222;52.912;6.940;2023-03-01T09:48:37;33.50;;;24.27;;
57395;SDS011;43222;52.912;6.940;2023-03-01T09:51:06;33.70;;;23.48;;
57395;SDS011;43222;52.912;6.940;2023-03-01T09:53:34;30.92;;;21.98;;
57395;SDS011;43222;52.912;6.940;2023-03-01T09:56:02;22.42;;;16.77;;
57395;SDS011;43222;52.912;6.940;2023-03-01T10:00:57;33.15;;;23.45;;
57395;SDS011;43222;52.912;6.940;2023-03-01T10:03:34;24.15;;;16.95;;
57395;SDS011;43222;52.912;6.940;2023-03-01T10:06:04;22.60;;;15.75;;
57395;SDS011;43222;52.912;6.940;2023-03-01T10:11:01;19.30;;;12.73;;
57395;SDS011;43222;52.912;6.940;2023-03-01T10:13:37;12.90;;;8.13;;
57395;SDS011;43222;52.912;6.940;2023-03-01T10:16:12;11.25;;;6.78;;
57395;SDS011;43222;52.912;6.940;2023-03-01T10:18:39;10.18;;;6.57;;
57395;SDS011;43222;52.912;6.940;2023-03-01T10:21:15;11.10;;;6.93;;
57395;SDS011;43222;52.912;6.940;2023-03-01T10:23:42;10.32;;;6.22;;
57395;SDS011;43222;52.912;6.940;2023-03-01T10:26:15;13.25;;;7.50;;
57395;SDS011;43222;52.912;6.940;2023-03-01T10:31:18;10.15;;;5.60;;
57395;SDS011;43222;52.912;6.940;2023-03-01T10:33:47;12.50;;;8.10;;
57395;SDS011;43222;52.912;6.940;2023-03-01T10:36:16;12.73;;;6.43;;
57395;SDS011;43222;52.912;6.940;2023-03-01T10:38:52;11.95;;;7.68;;
57395;SDS011;43222;52.912;6.940;2023-03-01T10:41:19;12.50;;;7.50;;
57395;SDS011;43222;52.912;6.940;2023-03-01T10:43:55;12.32;;;8.30;;
57395;SDS011;43222;52.912;6.940;2023-03-01T10:49:30;11.82;;;8.18;;
57395;SDS011;43222;52.912;6.940;2023-03-01T10:51:38;12.25;;;8.15;;
57395;SDS011;43222;52.912;6.940;2023-03-01T10:54:06;12.93;;;7.82;;
57395;SDS011;43222;52.912;6.940;2023-03-01T10:56:47;12.85;;;7.68;;
57395;SDS011;43222;52.912;6.940;2023-03-01T10:59:30;10.68;;;6.30;;
57395;SDS011;43222;52.912;6.940;2023-03-01T11:04:34;11.90;;;7.45;;
57395;SDS011;43222;52.912;6.940;2023-03-01T11:07:01;10.93;;;7.57;;
57395;SDS011;43222;52.912;6.940;2023-03-01T11:09:30;13.07;;;7.38;;
57395;SDS011;43222;52.912;6.940;2023-03-01T11:12:03;12.20;;;7.38;;
57395;SDS011;43222;52.912;6.940;2023-03-01T11:14:38;10.57;;;7.22;;
57395;SDS011;43222;52.912;6.940;2023-03-01T11:17:11;12.27;;;7.57;;
57395;SDS011;43222;52.912;6.940;2023-03-01T11:19:38;11.63;;;7.40;;
57395;SDS011;43222;52.912;6.940;2023-03-01T11:22:10;11.70;;;5.90;;
57395;SDS011;43222;52.912;6.940;2023-03-01T11:24:41;11.57;;;6.32;;
57395;SDS011;43222;52.912;6.940;2023-03-01T11:27:31;10.15;;;6.40;;
57395;SDS011;43222;52.912;6.940;2023-03-01T11:32:21;11.25;;;6.88;;
57395;SDS011;43222;52.912;6.940;2023-03-01T11:40:02;14.43;;;7.88;;
57395;SDS011;43222;52.912;6.940;2023-03-01T11:45:06;10.38;;;6.50;;
57395;SDS011;43222;52.912;6.940;2023-03-01T11:50:25;10.15;;;6.43;;
57395;SDS011;43222;52.912;6.940;2023-03-01T11:58:22;9.18;;;5.75;;
57395;SDS011;43222;52.912;6.940;2023-03-01T12:00:57;10.35;;;6.55;;
57395;SDS011;43222;52.912;6.940;2023-03-01T12:08:55;12.73;;;6.65;;
57395;SDS011;43222;52.912;6.940;2023-03-01T12:11:29;11.65;;;6.35;;
57395;SDS011;43222;52.912;6.940;2023-03-01T12:16:38;11.02;;;7.05;;
57395;SDS011;43222;52.912;6.940;2023-03-01T12:19:15;12.27;;;7.22;;
57395;SDS011;43222;52.912;6.940;2023-03-01T12:24:25;13.80;;;7.93;;
57395;SDS011;43222;52.912;6.940;2023-03-01T12:27:07;13.15;;;7.90;;
57395;SDS011;43222;52.912;6.940;2023-03-01T12:29:40;14.68;;;8.30;;
57395;SDS011;43222;52.912;6.940;2023-03-01T12:50:06;13.50;;;8.95;;
57395;SDS011;43222;52.912;6.940;2023-03-01T12:52:39;15.75;;;10.25;;
57395;SDS011;43222;52.912;6.940;2023-03-01T12:55:29;18.05;;;11.55;;
57395;SDS011;43222;52.912;6.940;2023-03-01T12:57:57;20.88;;;12.60;;
57395;SDS011;43222;52.912;6.940;2023-03-01T13:00:37;14.40;;;9.75;;
57395;SDS011;43222;52.912;6.940;2023-03-01T13:03:25;16.05;;;11.45;;
57395;SDS011;43222;52.912;6.940;2023-03-01T13:08:31;17.77;;;12.63;;
57395;SDS011;43222;52.912;6.940;2023-03-01T13:11:02;16.73;;;10.93;;
57395;SDS011;43222;52.912;6.940;2023-03-01T13:13:29;21.25;;;14.80;;
57395;SDS011;43222;52.912;6.940;2023-03-01T13:15:56;18.67;;;12.50;;
57395;SDS011;43222;52.912;6.940;2023-03-01T13:20:50;16.40;;;12.55;;
57395;SDS011;43222;52.912;6.940;2023-03-01T13:26:09;15.70;;;11.57;;
57395;SDS011;43222;52.912;6.940;2023-03-01T13:36:10;15.63;;;11.88;;
57395;SDS011;43222;52.912;6.940;2023-03-01T13:38:48;16.00;;;11.68;;
57395;SDS011;43222;52.912;6.940;2023-03-01T13:41:15;18.08;;;13.23;;
57395;SDS011;43222;52.912;6.940;2023-03-01T13:43:42;16.60;;;11.80;;
57395;SDS011;43222;52.912;6.940;2023-03-01T13:46:15;14.43;;;10.60;;
57395;SDS011;43222;52.912;6.940;2023-03-01T13:48:42;15.85;;;11.88;;
57395;SDS011;43222;52.912;6.940;2023-03-01T13:51:10;17.38;;;12.20;;
57395;SDS011;43222;52.912;6.940;2023-03-01T13:53:44;17.83;;;13.02;;
57395;SDS011;43222;52.912;6.940;2023-03-01T13:56:15;16.10;;;11.45;;
57395;SDS011;43222;52.912;6.940;2023-03-01T13:58:50;13.88;;;10.05;;
57395;SDS011;43222;52.912;6.940;2023-03-01T14:03:49;15.48;;;10.85;;
57395;SDS011;43222;52.912;6.940;2023-03-01T14:06:17;13.00;;;9.13;;
57395;SDS011;43222;52.912;6.940;2023-03-01T14:08:46;14.82;;;10.32;;
57395;SDS011;43222;52.912;6.940;2023-03-01T14:16:33;14.95;;;10.50;;
57395;SDS011;43222;52.912;6.940;2023-03-01T14:19:05;13.32;;;9.13;;
57395;SDS011;43222;52.912;6.940;2023-03-01T14:21:34;15.00;;;7.63;;
57395;SDS011;43222;52.912;6.940;2023-03-01T14:24:01;13.63;;;9.55;;
57395;SDS011;43222;52.912;6.940;2023-03-01T14:26:27;13.50;;;10.02;;
57395;SDS011;43222;52.912;6.940;2023-03-01T14:28:53;15.80;;;10.73;;
57395;SDS011;43222;52.912;6.940;2023-03-01T14:31:31;13.90;;;9.63;;
57395;SDS011;43222;52.912;6.940;2023-03-01T14:33:58;19.90;;;11.35;;
57395;SDS011;43222;52.912;6.940;2023-03-01T14:36:29;15.20;;;10.57;;
57395;SDS011;43222;52.912;6.940;2023-03-01T14:38:56;16.15;;;9.98;;
57395;SDS011;43222;52.912;6.940;2023-03-01T14:41:30;14.05;;;10.32;;
57395;SDS011;43222;52.912;6.940;2023-03-01T14:44:00;13.65;;;9.38;;
57395;SDS011;43222;52.912;6.940;2023-03-01T14:46:32;17.00;;;10.85;;
57395;SDS011;43222;52.912;6.940;2023-03-01T14:49:03;13.40;;;9.95;;
57395;SDS011;43222;52.912;6.940;2023-03-01T14:51:30;13.35;;;10.20;;
57395;SDS011;43222;52.912;6.940;2023-03-01T14:53:56;15.90;;;10.20;;
57395;SDS011;43222;52.912;6.940;2023-03-01T14:56:22;13.30;;;9.57;;
57395;SDS011;43222;52.912;6.940;2023-03-01T14:58:52;14.68;;;10.40;;
57395;SDS011;43222;52.912;6.940;2023-03-01T15:01:18;14.25;;;10.90;;
57395;SDS011;43222;52.912;6.940;2023-03-01T15:03:48;23.70;;;17.50;;
57395;SDS011;43222;52.912;6.940;2023-03-01T15:06:17;16.27;;;12.32;;
57395;SDS011;43222;52.912;6.940;2023-03-01T15:08:45;21.60;;;16.25;;
57395;SDS011;43222;52.912;6.940;2023-03-01T15:11:27;18.63;;;12.85;;
57395;SDS011;43222;52.912;6.940;2023-03-01T15:13:54;13.40;;;10.15;;
57395;SDS011;43222;52.912;6.940;2023-03-01T15:16:30;15.98;;;11.38;;
57395;SDS011;43222;52.912;6.940;2023-03-01T15:18:58;14.23;;;9.90;;
57395;SDS011;43222;52.912;6.940;2023-03-01T15:21:35;15.18;;;11.43;;
57395;SDS011;43222;52.912;6.940;2023-03-01T15:26:45;15.10;;;12.30;;
57395;SDS011;43222;52.912;6.940;2023-03-01T15:29:33;19.90;;;14.38;;
57395;SDS011;43222;52.912;6.940;2023-03-01T15:36:51;15.57;;;11.98;;
57395;SDS011;43222;52.912;6.940;2023-03-01T15:42:13;17.63;;;12.30;;
57395;SDS011;43222;52.912;6.940;2023-03-01T15:44:41;15.82;;;12.65;;
57395;SDS011;43222;52.912;6.940;2023-03-01T15:49:48;19.92;;;14.90;;
57395;SDS011;43222;52.912;6.940;2023-03-01T15:52:35;18.40;;;13.80;;
57395;SDS011;43222;52.912;6.940;2023-03-01T15:55:05;16.83;;;13.25;;
57395;SDS011;43222;52.912;6.940;2023-03-01T15:57:32;18.35;;;12.27;;
57395;SDS011;43222;52.912;6.940;2023-03-01T15:59:58;19.90;;;14.57;;
57395;SDS011;43222;52.912;6.940;2023-03-01T16:02:24;19.52;;;14.00;;
57395;SDS011;43222;52.912;6.940;2023-03-01T16:04:50;18.15;;;13.70;;
57395;SDS011;43222;52.912;6.940;2023-03-01T16:07:16;20.92;;;14.80;;
57395;SDS011;43222;52.912;6.940;2023-03-01T16:09:43;23.58;;;17.33;;
57395;SDS011;43222;52.912;6.940;2023-03-01T16:12:15;21.75;;;15.45;;
57395;SDS011;43222;52.912;6.940;2023-03-01T16:14:42;19.95;;;15.35;;
57395;SDS011;43222;52.912;6.940;2023-03-01T16:17:08;20.48;;;15.65;;
57395;SDS011;43222;52.912;6.940;2023-03-01T16:19:35;21.00;;;16.02;;
57395;SDS011;43222;52.912;6.940;2023-03-01T16:22:02;19.95;;;16.40;;
57395;SDS011;43222;52.912;6.940;2023-03-01T16:24:31;22.15;;;17.75;;